Time;durP1;ratioP1;P1;durP2;ratioP2;P2;SDS_P1;SDS_P2;PMS_P1;PMS_P2;Temp;Humidity;BMP_temperature;BMP_pressure;BME280_temperature;BME280_humidity;BME280_pressure;Samples;Min_cycle;Max_cycle;Signal;HPM_P1;HPM_P2
2023/08/01 00:00:05;;;;;;;3.60;1.98;;;20.30;47.80;;;;;;4968809;28;114575;-78
2023/08/01 00:02:37;;;;;;;;;;;20.30;48.30;;;;;;4986216;28;114310;-79
2023/08/01 00:05:05;;;;;;;5.10;2.30;;;20.20;47.70;;;;;;4986595;28;114212;-79
2023/08/01 00:07:32;;;;;;;4.63;2.13;;;20.20;47.80;;;;;;4987245;28;115218;-78
2023/08/01 00:10:03;;;;;;;13.57;2.38;;;20.10;50.00;;;;;;4986897;28;114673;-78
2023/08/01 00:12:31;;;;;;;5.20;2.00;;;20.20;48.80;;;;;;4985193;28;114425;-79
2023/08/01 00:14:59;;;;;;;7.22;2.00;;;20.10;48.40;;;;;;4987252;28;114393;-78
2023/08/01 00:17:26;;;;;;;5.85;2.38;;;20.10;48.30;;;;;;4985928;28;116037;-78
2023/08/01 00:19:54;;;;;;;4.53;1.88;;;20.10;48.90;;;;;;4984689;28;114718;-78
2023/08/01 00:22:22;;;;;;;4.60;1.98;;;20.00;48.40;;;;;;4986034;28;114318;-78
2023/08/01 00:24:49;;;;;;;6.70;1.98;;;20.00;48.40;;;;;;4986998;28;114327;-78
2023/08/01 00:27:16;;;;;;;4.43;2.05;;;20.00;48.60;;;;;;4987281;28;114913;-78
2023/08/01 00:29:43;;;;;;;5.18;2.08;;;19.90;48.40;;;;;;4987088;28;115132;-78
2023/08/01 00:32:10;;;;;;;4.22;2.10;;;19.80;49.10;;;;;;4970164;28;114260;-78
2023/08/01 00:34:37;;;;;;;4.05;1.98;;;19.80;50.80;;;;;;4986624;28;114248;-78
2023/08/01 00:37:04;;;;;;;4.20;1.90;;;19.80;51.20;;;;;;4986131;28;114897;-78
2023/08/01 00:39:31;;;;;;;4.50;1.92;;;20.00;49.40;;;;;;4968434;28;114739;-77
2023/08/01 00:41:59;;;;;;;3.70;2.00;;;20.10;49.10;;;;;;4987695;28;114253;-77
2023/08/01 00:44:26;;;;;;;4.25;2.10;;;20.10;50.30;;;;;;4987658;28;114353;-78
2023/08/01 00:46:53;;;;;;;4.55;2.25;;;20.30;49.60;;;;;;4986846;28;115157;-77
2023/08/01 00:49:20;;;;;;;5.28;1.95;;;20.40;48.40;;;;;;4985158;28;114745;-77
2023/08/01 00:51:47;;;;;;;5.53;2.22;;;20.50;49.10;;;;;;4985786;28;114543;-78
2023/08/01 00:54:15;;;;;;;5.93;1.90;;;20.40;48.90;;;;;;4986093;28;114364;-79
2023/08/01 00:56:42;;;;;;;4.07;2.00;;;20.30;48.10;;;;;;4968040;28;114854;-78
2023/08/01 00:59:09;;;;;;;5.30;1.73;;;20.30;49.30;;;;;;4984903;28;115079;-77
2023/08/01 01:01:36;;;;;;;5.45;1.95;;;20.40;48.50;;;;;;4985212;28;114394;-78
2023/08/01 01:04:04;;;;;;;3.25;1.85;;;20.40;47.90;;;;;;4987107;28;114350;-78
2023/08/01 01:06:33;;;;;;;5.80;2.03;;;20.30;48.10;;;;;;4985805;28;114857;-79
2023/08/01 01:09:00;;;;;;;3.60;2.08;;;20.30;48.30;;;;;;4968107;28;115951;-77
2023/08/01 01:11:28;;;;;;;4.85;2.25;;;20.20;48.50;;;;;;4968935;28;115270;-77
2023/08/01 01:13:55;;;;;;;4.88;2.53;;;20.10;48.70;;;;;;4985337;28;114585;-78
2023/08/01 01:16:22;;;;;;;6.63;1.90;;;20.10;48.80;;;;;;4984581;28;114907;-79
2023/08/01 01:18:49;;;;;;;4.97;2.03;;;19.90;49.60;;;;;;4984540;28;114687;-78
2023/08/01 01:21:16;;;;;;;4.70;2.03;;;19.80;49.40;;;;;;4986496;28;114205;-79
2023/08/01 01:23:43;;;;;;;4.57;2.00;;;19.80;50.40;;;;;;4985263;28;114374;-78
2023/08/01 01:26:10;;;;;;;3.15;1.90;;;19.70;51.10;;;;;;4984074;28;115187;-79
2023/08/01 01:28:37;;;;;;;4.80;2.35;;;19.70;50.20;;;;;;4984230;28;114747;-79
2023/08/01 01:31:04;;;;;;;5.28;2.30;;;19.70;50.10;;;;;;4985496;28;114301;-79
2023/08/01 01:33:32;;;;;;;5.28;2.00;;;19.60;50.40;;;;;;4968905;28;114255;-79
2023/08/01 01:36:01;;;;;;;4.57;2.13;;;19.50;50.50;;;;;;4983435;28;116813;-78
2023/08/01 01:38:28;;;;;;;6.38;2.00;;;19.40;51.10;;;;;;4984388;28;114989;-78
2023/08/01 01:40:55;;;;;;;5.05;2.15;;;19.30;51.50;;;;;;4985994;28;114153;-78
2023/08/01 01:43:22;;;;;;;4.10;2.17;;;19.40;51.90;;;;;;4986468;28;114083;-79
2023/08/01 01:45:49;;;;;;;5.82;2.40;;;19.50;51.70;;;;;;4983781;28;116390;-78
2023/08/01 01:48:16;;;;;;;5.38;2.55;;;19.50;50.80;;;;;;4984913;28;114609;-78
2023/08/01 01:50:43;;;;;;;3.70;1.90;;;19.60;51.00;;;;;;4968020;28;115041;-78
2023/08/01 01:53:10;;;;;;;3.65;2.10;;;19.60;51.00;;;;;;4984918;28;114455;-79
2023/08/01 01:55:37;;;;;;;5.95;2.20;;;19.50;50.60;;;;;;4985264;28;114786;-78
2023/08/01 01:58:05;;;;;;;6.10;2.50;;;19.50;50.80;;;;;;4984116;28;114727;-78
2023/08/01 02:00:32;;;;;;;5.07;2.47;;;19.40;50.70;;;;;;4968828;28;114286;-78
2023/08/01 02:03:00;;;;;;;6.65;2.47;;;19.30;50.80;;;;;;4985259;28;114074;-78
2023/08/01 02:05:27;;;;;;;4.20;2.13;;;19.30;51.10;;;;;;4985736;28;115380;-78
2023/08/01 02:07:55;;;;;;;5.68;2.45;;;19.30;51.20;;;;;;4986206;28;114677;-77
2023/08/01 02:10:22;;;;;;;6.07;2.33;;;19.20;51.20;;;;;;4988035;28;114109;-77
2023/08/01 02:12:49;;;;;;;4.75;2.30;;;19.20;51.40;;;;;;4988501;28;114942;-79
2023/08/01 02:15:16;;;;;;;5.78;2.72;;;19.20;51.50;;;;;;4987959;28;114899;-77
2023/08/01 02:17:44;;;;;;;5.63;2.85;;;19.20;52.10;;;;;;4988279;28;114611;-77
2023/08/01 02:20:11;;;;;;;8.73;3.58;;;19.30;52.20;;;;;;4987960;28;114303;-77
2023/08/01 02:22:38;;;;;;;5.25;2.55;;;19.20;51.40;;;;;;4987845;28;114513;-78
2023/08/01 02:25:05;;;;;;;9.10;3.42;;;19.10;52.60;;;;;;4986845;28;114919;-78
2023/08/01 02:27:32;;;;;;;6.97;2.95;;;19.20;52.10;;;;;;4988172;28;114553;-78
2023/08/01 02:29:59;;;;;;;9.27;3.42;;;19.30;51.40;;;;;;4989152;28;114382;-78
2023/08/01 02:32:26;;;;;;;5.32;2.67;;;19.40;51.30;;;;;;4989241;28;114382;-79
2023/08/01 02:34:58;;;;;;;4.45;2.35;;;19.50;51.30;;;;;;4987753;28;115418;-78
2023/08/01 02:37:25;;;;;;;5.35;2.40;;;19.50;50.70;;;;;;4987517;28;114910;-78
2023/08/01 02:39:52;;;;;;;4.97;2.60;;;19.60;50.80;;;;;;4988216;28;114163;-79
2023/08/01 02:42:19;;;;;;;5.50;2.55;;;19.50;50.30;;;;;;4989133;28;113956;-80
2023/08/01 02:44:46;;;;;;;4.90;2.30;;;19.40;50.70;;;;;;4986768;28;114871;-78
2023/08/01 02:47:13;;;;;;;5.57;2.30;;;19.40;50.70;;;;;;4970315;28;115818;-79
2023/08/01 02:49:40;;;;;;;6.60;2.60;;;19.30;51.20;;;;;;4988536;28;114358;-78
2023/08/01 02:52:08;;;;;;;3.72;2.38;;;19.30;51.10;;;;;;4987731;28;114465;-79
2023/08/01 02:54:35;;;;;;;5.70;2.25;;;19.30;51.40;;;;;;4986625;28;115173;-78
2023/08/01 02:57:02;;;;;;;5.53;2.75;;;19.30;50.40;;;;;;4988257;28;114608;-79
2023/08/01 02:59:29;;;;;;;4.68;2.50;;;19.20;50.80;;;;;;4988439;28;114067;-78
2023/08/01 03:01:56;;;;;;;5.65;2.38;;;19.00;51.10;;;;;;4988307;28;114324;-78
2023/08/01 03:04:23;;;;;;;4.80;2.42;;;19.00;51.30;;;;;;4986862;28;114861;-78
2023/08/01 03:07:06;;;;;;;6.97;2.40;;;19.20;51.10;;;;;;4986468;28;114757;-77
2023/08/01 03:09:33;;;;;;;5.25;2.10;;;19.20;50.90;;;;;;4987291;28;114375;-78
2023/08/01 03:12:00;;;;;;;5.35;2.63;;;19.10;50.90;;;;;;4988501;28;114484;-78
2023/08/01 03:14:28;;;;;;;4.65;2.35;;;19.00;51.20;;;;;;4987259;28;114199;-78
2023/08/01 03:16:55;;;;;;;5.70;2.38;;;18.90;51.30;;;;;;4969485;28;116751;-78
2023/08/01 03:19:22;;;;;;;6.35;2.40;;;18.80;51.50;;;;;;4986556;28;114045;-79
2023/08/01 03:21:49;;;;;;;6.05;2.85;;;18.80;51.50;;;;;;4988704;28;114136;-78
2023/08/01 03:24:16;;;;;;;4.68;2.40;;;18.80;52.10;;;;;;4969269;28;116004;-77
2023/08/01 03:26:43;;;;;;;6.40;2.40;;;18.80;51.80;;;;;;4986254;28;115111;-77
2023/08/01 03:29:10;;;;;;;4.35;2.22;;;18.90;51.90;;;;;;4986543;28;114232;-77
2023/08/01 03:31:37;;;;;;;4.43;1.95;;;19.00;51.60;;;;;;4988318;28;114130;-77
2023/08/01 03:34:07;;;;;;;5.13;2.13;;;19.00;51.80;;;;;;4987139;28;115478;-77
2023/08/01 03:36:35;;;;;;;3.92;1.98;;;19.00;51.70;;;;;;4969083;28;117259;-77
2023/08/01 03:39:03;;;;;;;5.20;2.40;;;19.00;51.50;;;;;;4987977;28;114239;-78
2023/08/01 03:41:32;;;;;;;4.88;2.20;;;19.00;51.70;;;;;;4970279;28;114312;-78
2023/08/01 03:43:59;;;;;;;3.83;2.17;;;18.90;52.60;;;;;;4968778;28;114973;-77
2023/08/01 03:46:26;;;;;;;4.80;2.22;;;18.90;53.00;;;;;;4985912;28;114717;-78
2023/08/01 03:48:53;;;;;;;6.00;2.22;;;19.00;52.30;;;;;;4986292;28;114316;-78
2023/08/01 03:51:20;;;;;;;6.35;2.38;;;18.90;52.10;;;;;;4987365;28;114344;-77
2023/08/01 03:53:47;;;;;;;3.67;2.08;;;18.80;52.40;;;;;;4984597;28;114811;-78
2023/08/01 03:56:29;;;;;;;6.85;2.47;;;18.80;52.50;;;;;;4985355;28;114538;-79
2023/08/01 03:58:56;;;;;;;7.60;2.17;;;18.80;52.70;;;;;;4986057;28;114233;-78
2023/08/01 04:01:23;;;;;;;5.13;2.28;;;18.70;52.80;;;;;;4986214;28;114249;-77
2023/08/01 04:03:50;;;;;;;4.85;2.20;;;18.80;53.10;;;;;;4985348;28;116916;-78
2023/08/01 04:06:18;;;;;;;6.20;2.60;;;18.80;52.90;;;;;;4986930;28;114554;-77
2023/08/01 04:08:45;;;;;;;3.95;2.22;;;18.80;52.90;;;;;;4987084;28;114043;-77
2023/08/01 04:11:12;;;;;;;5.75;2.38;;;18.90;52.80;;;;;;4987946;28;114218;-79
2023/08/01 04:13:39;;;;;;;6.70;2.53;;;18.90;52.60;;;;;;4986351;28;115210;-78
2023/08/01 04:16:06;;;;;;;7.20;2.20;;;19.10;52.60;;;;;;4986690;28;114674;-77
2023/08/01 04:18:33;;;;;;;4.15;2.20;;;19.20;52.40;;;;;;4987279;28;114490;-78
2023/08/01 04:21:00;;;;;;;4.93;2.33;;;19.10;52.80;;;;;;4985583;28;114509;-78
2023/08/01 04:23:27;;;;;;;5.72;2.50;;;19.20;52.50;;;;;;4985923;28;114944;-79
2023/08/01 04:25:54;;;;;;;5.32;2.40;;;19.20;52.80;;;;;;4984924;28;116351;-79
2023/08/01 04:28:21;;;;;;;4.25;2.55;;;19.40;52.70;;;;;;4987955;28;114235;-80
2023/08/01 04:30:49;;;;;;;4.35;2.10;;;19.70;51.90;;;;;;4985522;28;114203;-78
2023/08/01 04:33:17;;;;;;;6.85;2.70;;;19.90;52.00;;;;;;4986240;28;114879;-78
2023/08/01 04:35:44;;;;;;;4.70;2.50;;;20.20;51.30;;;;;;4984882;28;114735;-79
2023/08/01 04:38:14;;;;;;;4.70;2.20;;;20.40;50.70;;;;;;4987326;28;114207;-78
2023/08/01 04:40:41;;;;;;;5.40;2.67;;;20.50;50.80;;;;;;4969410;28;114569;-79
2023/08/01 04:43:09;;;;;;;5.35;2.60;;;20.60;50.50;;;;;;4984818;28;115107;-78
2023/08/01 04:45:36;;;;;;;12.23;2.60;;;20.60;50.50;;;;;;4985197;28;114699;-79
2023/08/01 04:48:03;;;;;;;4.18;2.50;;;20.40;50.80;;;;;;4985062;28;114262;-78
2023/08/01 04:50:30;;;;;;;5.95;2.50;;;20.20;51.30;;;;;;4985219;28;114222;-79
2023/08/01 04:52:57;;;;;;;3.53;2.28;;;20.10;51.80;;;;;;4984531;28;114977;-78
2023/08/01 04:55:24;;;;;;;4.22;2.40;;;20.10;51.70;;;;;;4985618;28;114136;-80
2023/08/01 04:57:51;;;;;;;6.07;2.50;;;20.10;51.80;;;;;;4986730;28;114415;-80
2023/08/01 05:00:18;;;;;;;4.57;2.17;;;20.00;52.10;;;;;;4987203;28;114130;-78
2023/08/01 05:02:46;;;;;;;6.40;2.60;;;20.00;52.20;;;;;;4984272;28;114981;-78
2023/08/01 05:05:13;;;;;;;7.25;2.42;;;19.90;52.60;;;;;;4985897;28;114750;-79
2023/08/01 05:07:40;;;;;;;6.43;2.30;;;19.90;52.70;;;;;;4984868;28;114148;-78
2023/08/01 05:10:07;;;;;;;5.70;2.60;;;20.00;52.60;;;;;;4986801;28;114473;-77
2023/08/01 05:12:34;;;;;;;4.20;2.28;;;20.10;52.70;;;;;;4984088;28;115131;-79
2023/08/01 05:15:02;;;;;;;4.63;2.50;;;20.10;52.60;;;;;;4984581;28;114563;-78
2023/08/01 05:17:30;;;;;;;6.60;3.00;;;20.10;52.80;;;;;;4986530;28;114510;-78
2023/08/01 05:19:57;;;;;;;4.97;2.65;;;19.90;53.10;;;;;;4985071;28;114879;-78
2023/08/01 05:22:24;;;;;;;4.15;2.58;;;20.00;53.20;;;;;;4985376;28;114912;-79
2023/08/01 05:24:51;;;;;;;6.85;2.83;;;19.90;53.40;;;;;;4985540;28;114603;-78
2023/08/01 05:27:18;;;;;;;3.83;2.25;;;19.90;53.70;;;;;;4985515;28;114194;-79
2023/08/01 05:29:45;;;;;;;5.38;2.90;;;19.90;53.60;;;;;;4968023;28;114555;-78
2023/08/01 05:32:12;;;;;;;5.32;3.05;;;20.10;53.60;;;;;;4984609;28;114810;-79
2023/08/01 05:34:40;;;;;;;5.70;2.70;;;20.20;53.50;;;;;;4984809;28;114784;-78
2023/08/01 05:37:07;;;;;;;6.32;3.22;;;20.30;53.40;;;;;;4984424;28;114432;-79
2023/08/01 05:39:34;;;;;;;6.78;3.03;;;20.40;53.30;;;;;;4987642;28;114321;-79
2023/08/01 05:42:01;;;;;;;5.05;3.00;;;20.50;53.30;;;;;;4984902;28;115471;-79
2023/08/01 05:44:28;;;;;;;4.65;2.90;;;20.50;53.20;;;;;;4988013;28;114806;-78
2023/08/01 05:46:55;;;;;;;8.18;3.00;;;20.40;53.60;;;;;;4988516;28;114614;-79
2023/08/01 05:49:22;;;;;;;7.63;3.20;;;20.30;53.90;;;;;;4989003;28;114407;-79
2023/08/01 05:51:49;;;;;;;5.43;2.97;;;20.30;53.90;;;;;;4987236;28;115883;-78
2023/08/01 05:54:16;;;;;;;5.07;2.78;;;20.40;53.80;;;;;;4987357;28;114888;-79
2023/08/01 05:56:43;;;;;;;8.25;3.15;;;20.50;54.00;;;;;;4988004;28;114260;-78
2023/08/01 05:59:11;;;;;;;5.10;2.70;;;20.40;54.10;;;;;;4988109;28;114328;-78
2023/08/01 06:01:38;;;;;;;5.57;2.80;;;20.30;54.30;;;;;;4988477;28;114874;-78
2023/08/01 06:04:06;;;;;;;5.00;3.10;;;20.30;54.50;;;;;;4989068;28;114968;-79
2023/08/01 06:06:33;;;;;;;5.97;3.28;;;20.30;54.80;;;;;;4989005;28;114592;-79
2023/08/01 06:09:00;;;;;;;6.13;2.70;;;20.30;54.90;;;;;;4989887;28;114214;-79
2023/08/01 06:11:27;;;;;;;5.03;2.83;;;20.30;55.10;;;;;;4988584;28;114885;-79
2023/08/01 06:13:54;;;;;;;5.88;2.80;;;20.30;55.30;;;;;;4987659;28;114718;-79
2023/08/01 06:16:21;;;;;;;8.10;2.88;;;20.20;55.40;;;;;;4989644;28;114269;-79
2023/08/01 06:18:50;;;;;;;6.07;3.05;;;20.20;55.60;;;;;;4989891;28;114570;-78
2023/08/01 06:21:17;;;;;;;9.63;3.65;;;20.20;55.70;;;;;;4985415;28;114915;-79
2023/08/01 06:23:44;;;;;;;4.75;2.92;;;20.20;55.80;;;;;;4988115;28;114586;-79
2023/08/01 06:26:11;;;;;;;5.65;2.92;;;20.30;55.40;;;;;;4987870;28;114369;-78
2023/08/01 06:28:38;;;;;;;7.93;3.10;;;20.30;55.70;;;;;;4988913;28;114374;-77
2023/08/01 06:31:05;;;;;;;7.05;3.20;;;20.30;55.80;;;;;;4987580;28;117164;-77
2023/08/01 06:33:32;;;;;;;6.82;3.20;;;20.30;56.00;;;;;;4987662;28;115238;-79
2023/08/01 06:35:59;;;;;;;7.55;3.28;;;20.30;56.10;;;;;;4988067;28;114345;-80
2023/08/01 06:38:26;;;;;;;6.95;3.42;;;20.30;56.10;;;;;;4987787;28;114241;-79
2023/08/01 06:40:53;;;;;;;7.43;3.78;;;20.40;56.00;;;;;;4986121;28;116192;-77
2023/08/01 06:43:20;;;;;;;5.43;3.40;;;20.40;56.00;;;;;;4987790;28;114220;-78
2023/08/01 06:45:49;;;;;;;5.80;3.63;;;20.50;55.80;;;;;;4987640;28;114458;-78
2023/08/01 06:48:16;;;;;;;5.53;3.10;;;20.60;55.70;;;;;;4988727;28;114226;-79
2023/08/01 06:50:43;;;;;;;4.75;3.20;;;20.70;55.60;;;;;;4987577;28;114968;-78
2023/08/01 06:53:10;;;;;;;8.38;3.25;;;20.70;55.60;;;;;;4985998;28;115773;-78
2023/08/01 06:55:38;;;;;;;10.82;3.63;;;20.70;55.60;;;;;;4988135;28;114209;-77
2023/08/01 06:58:05;;;;;;;8.43;3.80;;;20.70;55.60;;;;;;4988293;28;114326;-78
2023/08/01 07:00:32;;;;;;;6.88;3.40;;;20.80;55.50;;;;;;4986904;28;116968;-78
2023/08/01 07:02:59;;;;;;;8.13;3.63;;;20.90;55.50;;;;;;4987452;28;114622;-77
2023/08/01 07:05:26;;;;;;;7.05;3.50;;;21.00;55.50;;;;;;4987317;28;114309;-79
2023/08/01 07:07:54;;;;;;;6.65;3.35;;;21.10;55.20;;;;;;4987845;28;114301;-78
2023/08/01 07:10:21;;;;;;;8.30;3.90;;;21.30;54.80;;;;;;4986594;28;115010;-78
2023/08/01 07:12:48;;;;;;;11.85;3.83;;;21.40;55.10;;;;;;4986827;28;114776;-80
2023/08/01 07:15:15;;;;;;;7.40;3.60;;;21.60;54.70;;;;;;4987824;28;114520;-79
2023/08/01 07:17:42;;;;;;;7.60;3.90;;;21.80;54.50;;;;;;4986631;28;114483;-79
2023/08/01 07:20:10;;;;;;;6.88;3.78;;;21.90;54.20;;;;;;4986287;28;116138;-78
2023/08/01 07:22:37;;;;;;;8.10;4.20;;;22.00;54.00;;;;;;4985438;28;114735;-77
2023/08/01 07:25:04;;;;;;;6.78;3.72;;;22.10;53.90;;;;;;4986429;28;114603;-79
2023/08/01 07:27:31;;;;;;;4.85;3.30;;;22.20;53.80;;;;;;4988104;28;114238;-78
2023/08/01 07:30:04;;;;;;;6.03;3.80;;;22.20;53.70;;;;;;4986896;28;116970;-76
2023/08/01 07:32:31;;;;;;;7.70;3.38;;;22.20;53.90;;;;;;4986449;28;114900;-78
2023/08/01 07:35:01;;;;;;;7.30;3.30;;;22.20;54.10;;;;;;4987212;28;114234;-77
2023/08/01 07:37:28;;;;;;;6.18;3.60;;;22.20;53.80;;;;;;4986179;28;114416;-78
2023/08/01 07:39:56;;;;;;;5.60;3.20;;;22.30;54.00;;;;;;4985098;28;117515;-78
2023/08/01 07:42:24;;;;;;;6.55;3.42;;;22.30;54.00;;;;;;4987219;28;115121;-78
2023/08/01 07:44:51;;;;;;;7.53;4.03;;;22.30;53.80;;;;;;4986614;28;114419;-79
2023/08/01 07:47:18;;;;;;;7.13;4.10;;;22.30;53.80;;;;;;4987460;28;114116;-79
2023/08/01 07:49:45;;;;;;;6.72;3.75;;;22.30;54.00;;;;;;4985201;28;114928;-79
2023/08/01 07:52:12;;;;;;;7.70;4.07;;;22.40;53.80;;;;;;4986530;28;114565;-78
2023/08/01 07:54:39;;;;;;;6.00;3.33;;;22.40;53.80;;;;;;4986165;28;114315;-79
2023/08/01 07:57:06;;;;;;;5.80;3.42;;;22.50;53.40;;;;;;4985920;28;114156;-79
2023/08/01 07:59:33;;;;;;;6.13;3.10;;;22.60;53.80;;;;;;4985980;28;114964;-79
2023/08/01 08:02:00;;;;;;;6.75;3.40;;;22.70;54.00;;;;;;4986391;28;114767;-79
2023/08/01 08:04:28;;;;;;;6.25;3.47;;;22.90;53.30;;;;;;4987372;28;114223;-77
2023/08/01 08:06:59;;;;;;;7.80;3.25;;;23.10;53.10;;;;;;4986146;28;114482;-79
2023/08/01 08:09:27;;;;;;;8.13;3.75;;;23.30;51.90;;;;;;4986722;28;114933;-79
2023/08/01 08:11:54;;;;;;;5.47;2.95;;;23.50;51.50;;;;;;4984929;28;115782;-78
2023/08/01 08:14:22;;;;;;;5.55;3.45;;;23.70;51.30;;;;;;4986742;28;114387;-77
2023/08/01 08:16:50;;;;;;;5.80;3.33;;;23.80;49.00;;;;;;4987399;28;114303;-78
2023/08/01 08:19:17;;;;;;;4.68;3.00;;;23.90;47.90;;;;;;4985159;28;114880;-78
2023/08/01 08:21:45;;;;;;;5.07;2.92;;;24.00;47.50;;;;;;4985049;28;114665;-79
2023/08/01 08:24:12;;;;;;;4.72;3.15;;;24.20;46.80;;;;;;4987181;28;114327;-79
2023/08/01 08:26:39;;;;;;;5.13;3.10;;;24.20;46.60;;;;;;4986874;28;114286;-78
2023/08/01 08:29:07;;;;;;;6.28;2.90;;;24.30;46.20;;;;;;4986020;28;114817;-78
2023/08/01 08:31:35;;;;;;;6.70;2.80;;;24.30;46.40;;;;;;4985938;28;115017;-79
2023/08/01 08:34:05;;;;;;;6.13;2.83;;;24.40;45.30;;;;;;4987077;28;114347;-79
2023/08/01 08:36:32;;;;;;;4.78;2.70;;;24.50;45.70;;;;;;4986088;28;114746;-78
2023/08/01 08:39:00;;;;;;;6.00;3.20;;;24.50;45.20;;;;;;4968369;28;115381;-79
2023/08/01 08:41:28;;;;;;;4.32;2.60;;;24.50;45.10;;;;;;4985788;28;114651;-80
2023/08/01 08:43:56;;;;;;;4.75;2.97;;;24.40;43.80;;;;;;4986643;28;114179;-79
2023/08/01 08:46:29;;;;;;;6.03;2.75;;;24.40;43.60;;;;;;4969131;28;114224;-79
2023/08/01 08:48:57;;;;;;;4.30;2.60;;;24.30;44.00;;;;;;4984117;28;114879;-78
2023/08/01 08:51:26;;;;;;;6.10;3.00;;;24.30;44.10;;;;;;4986240;28;114954;-78
2023/08/01 08:53:54;;;;;;;5.05;2.88;;;24.30;44.00;;;;;;4969370;28;114374;-78
2023/08/01 08:56:22;;;;;;;5.15;3.03;;;24.20;44.30;;;;;;4968782;28;114277;-77
2023/08/01 08:58:49;;;;;;;4.20;2.88;;;24.10;44.80;;;;;;4985606;28;114999;-77
2023/08/01 09:01:17;;;;;;;5.72;3.03;;;24.10;45.10;;;;;;4984684;28;114624;-77
2023/08/01 09:03:44;;;;;;;5.03;2.90;;;24.10;45.10;;;;;;4968957;28;114325;-80
2023/08/01 09:06:16;;;;;;;4.30;2.72;;;24.00;45.00;;;;;;4985638;28;114305;-78
2023/08/01 09:09:02;;;;;;;4.15;2.97;;;24.00;45.00;;;;;;4984255;28;117730;-78
2023/08/01 09:11:56;;;;;;;4.72;3.05;;;24.10;45.20;;;;;;4986242;28;114937;-77
2023/08/01 09:14:23;;;;;;;4.97;3.22;;;24.00;45.60;;;;;;4985416;28;114521;-78
2023/08/01 09:16:50;;;;;;;6.45;3.42;;;23.90;45.70;;;;;;4987534;28;114485;-78
2023/08/01 09:19:18;;;;;;;4.20;2.90;;;23.90;45.80;;;;;;4988207;28;114841;-78
2023/08/01 09:21:46;;;;;;;5.18;3.00;;;23.90;45.90;;;;;;4988613;28;115697;-79
2023/08/01 09:24:19;;;;;;;5.70;3.08;;;23.80;46.30;;;;;;4990837;28;114297;-78
2023/08/01 09:26:47;;;;;;;6.53;3.65;;;23.80;46.70;;;;;;4989207;28;114143;-79
2023/08/01 09:29:18;;;;;;;4.72;2.90;;;23.70;46.80;;;;;;4987596;28;115225;-78
2023/08/01 09:31:45;;;;;;;6.18;3.35;;;23.70;47.00;;;;;;4989111;28;114557;-78
2023/08/01 09:34:25;;;;;;;4.78;3.08;;;23.60;47.80;;;;;;4989787;28;114404;-79
2023/08/01 09:36:59;;;;;;;5.22;3.28;;;23.60;48.10;;;;;;4987686;28;114666;-78
2023/08/01 09:39:26;;;;;;;5.43;2.72;;;23.40;48.50;;;;;;4988905;28;115039;-78
2023/08/01 09:41:57;;;;;;;5.78;3.00;;;23.30;48.60;;;;;;4988314;28;114560;-78
2023/08/01 09:44:26;;;;;;;6.03;3.40;;;23.30;49.10;;;;;;4988932;28;114543;-79
2023/08/01 09:47:08;;;;;;;4.97;3.30;;;23.30;50.20;;;;;;4989789;28;114114;-78
2023/08/01 09:49:36;;;;;;;6.25;3.03;;;23.30;50.70;;;;;;4988648;28;114852;-78
2023/08/01 09:52:04;;;;;;;5.15;3.30;;;23.20;51.20;;;;;;4988713;28;114703;-78
2023/08/01 09:54:31;;;;;;;4.68;3.45;;;23.00;51.00;;;;;;4988424;28;114133;-78
2023/08/01 09:56:58;;;;;;;5.95;3.25;;;22.90;52.40;;;;;;4988779;28;114248;-79
2023/08/01 09:59:25;;;;;;;5.45;3.50;;;22.90;52.10;;;;;;4987439;28;114901;-79
2023/08/01 10:01:54;;;;;;;5.53;3.20;;;22.80;51.80;;;;;;4987249;28;115826;-80
2023/08/01 10:04:30;;;;;;;8.27;3.78;;;22.80;52.70;;;;;;4987284;28;114288;-79
2023/08/01 10:07:05;;;;;;;10.88;3.70;;;22.70;52.50;;;;;;4987846;28;114457;-78
2023/08/01 10:09:32;;;;;;;5.65;3.25;;;22.70;53.20;;;;;;4986902;28;115323;-79
2023/08/01 10:11:59;;;;;;;6.18;3.25;;;22.70;53.50;;;;;;4986924;28;116232;-78
2023/08/01 10:14:26;;;;;;;5.00;3.28;;;22.70;54.20;;;;;;4989229;28;114315;-78
2023/08/01 10:16:54;;;;;;;4.88;3.38;;;22.70;53.40;;;;;;4987513;28;114162;-78
2023/08/01 10:19:22;;;;;;;6.18;3.30;;;22.60;54.50;;;;;;4987906;28;114872;-77
2023/08/01 10:21:50;;;;;;;6.63;3.25;;;22.50;55.00;;;;;;4988019;28;115141;-78
2023/08/01 10:24:20;;;;;;;5.57;3.55;;;22.30;55.40;;;;;;4971879;28;114128;-80
2023/08/01 10:26:47;;;;;;;5.07;3.30;;;22.10;55.30;;;;;;4987836;28;114385;-79
2023/08/01 10:29:18;;;;;;;5.00;3.22;;;21.90;55.80;;;;;;4986225;28;114852;-77
2023/08/01 10:31:54;;;;;;;7.22;3.20;;;21.80;55.70;;;;;;4987682;28;114729;-78
2023/08/01 10:34:22;;;;;;;5.22;3.58;;;21.60;56.20;;;;;;4988533;28;114115;-78
2023/08/01 10:36:58;;;;;;;6.35;3.90;;;21.40;57.20;;;;;;4988020;28;114705;-79
2023/08/01 10:39:26;;;;;;;5.60;3.30;;;21.30;57.90;;;;;;4987490;28;114867;-78
2023/08/01 10:42:04;;;;;;;6.45;3.55;;;21.20;59.20;;;;;;4986990;28;116809;-78
2023/08/01 10:44:34;;;;;;;5.72;3.50;;;21.00;60.10;;;;;;4988569;28;114454;-77
2023/08/01 10:47:02;;;;;;;5.72;3.60;;;20.80;60.60;;;;;;4988950;28;114271;-78
2023/08/01 10:49:39;;;;;;;5.68;3.67;;;20.80;61.40;;;;;;4987737;28;114872;-80
2023/08/01 10:52:16;;;;;;;6.47;3.83;;;20.70;61.50;;;;;;4987692;28;114591;-79
2023/08/01 10:54:44;;;;;;;5.10;3.45;;;20.50;61.80;;;;;;4988328;28;114122;-78
2023/08/01 10:57:17;;;;;;;6.28;4.05;;;20.50;61.50;;;;;;4988373;28;114251;-78
2023/08/01 10:59:44;;;;;;;7.33;4.07;;;20.60;62.20;;;;;;4987331;28;115602;-79
2023/08/01 11:02:11;;;;;;;5.80;3.47;;;20.60;61.90;;;;;;4986268;28;114524;-78
2023/08/01 11:04:38;;;;;;;7.13;3.45;;;20.70;60.00;;;;;;4988208;28;114464;-79
2023/08/01 11:07:05;;;;;;;4.93;3.10;;;20.80;60.40;;;;;;4988198;28;114694;-80
2023/08/01 11:09:32;;;;;;;6.25;3.75;;;20.90;58.60;;;;;;4987152;28;115241;-79
2023/08/01 11:12:00;;;;;;;5.03;3.55;;;21.10;59.70;;;;;;4986243;28;114902;-78
2023/08/01 11:14:28;;;;;;;5.63;3.72;;;21.30;58.60;;;;;;4986845;28;114086;-77
2023/08/01 11:16:55;;;;;;;5.47;3.67;;;21.40;57.40;;;;;;4987944;28;114362;-78
2023/08/01 11:19:24;;;;;;;5.70;3.15;;;21.50;57.60;;;;;;4987336;28;115740;-78
2023/08/01 11:21:51;;;;;;;6.20;3.67;;;21.60;57.50;;;;;;4987182;28;115921;-79
2023/08/01 11:24:19;;;;;;;4.85;3.15;;;21.50;57.00;;;;;;4988898;28;113977;-79
2023/08/01 11:26:47;;;;;;;5.20;3.28;;;21.50;57.80;;;;;;4988607;28;114494;-79
2023/08/01 11:29:14;;;;;;;5.25;3.22;;;21.40;57.60;;;;;;4987501;28;116224;-78
2023/08/01 11:31:52;;;;;;;4.93;3.00;;;21.20;57.70;;;;;;4985829;28;115717;-79
2023/08/01 11:34:19;;;;;;;3.95;2.75;;;21.10;58.50;;;;;;4987137;28;114340;-78
2023/08/01 11:36:46;;;;;;;4.90;2.90;;;21.00;58.90;;;;;;4988064;28;114191;-79
2023/08/01 11:39:14;;;;;;;6.50;3.10;;;20.90;59.20;;;;;;4985830;28;117404;-79
2023/08/01 11:41:42;;;;;;;5.65;3.25;;;20.80;59.00;;;;;;4985407;28;114734;-79
2023/08/01 11:44:10;;;;;;;4.30;3.00;;;20.80;59.60;;;;;;4986491;28;114334;-79
2023/08/01 11:46:39;;;;;;;4.63;2.90;;;20.80;58.90;;;;;;4987977;28;114439;-79
2023/08/01 11:49:07;;;;;;;5.40;3.30;;;20.90;59.10;;;;;;4987582;28;114306;-79
2023/08/01 11:51:41;;;;;;;4.88;3.42;;;20.90;59.20;;;;;;4986236;28;115858;-78
2023/08/01 11:54:10;;;;;;;5.70;3.40;;;21.00;59.10;;;;;;4987444;28;114028;-78
2023/08/01 11:56:39;;;;;;;5.88;3.65;;;20.90;59.80;;;;;;4986323;28;114117;-79
2023/08/01 11:59:10;;;;;;;6.20;3.75;;;20.70;60.80;;;;;;4984737;28;115069;-79
2023/08/01 12:01:45;;;;;;;4.88;3.67;;;20.70;61.60;;;;;;4985417;28;114727;-79
2023/08/01 12:04:12;;;;;;;7.43;3.72;;;20.60;61.70;;;;;;4986624;28;114232;-78
2023/08/01 12:06:40;;;;;;;5.53;4.28;;;20.70;61.80;;;;;;4987207;28;114344;-78
2023/08/01 12:09:12;;;;;;;5.93;3.85;;;20.80;61.40;;;;;;4984536;28;114915;-78
2023/08/01 12:11:39;;;;;;;8.95;5.00;;;20.90;62.00;;;;;;4986218;28;114683;-78
2023/08/01 12:14:11;;;;;;;8.38;5.13;;;20.90;60.60;;;;;;4987340;28;114185;-77
2023/08/01 12:16:39;;;;;;;5.68;3.88;;;21.00;60.10;;;;;;4987704;28;114082;-78
2023/08/01 12:19:08;;;;;;;6.28;4.07;;;21.10;61.70;;;;;;4986131;28;115505;-78
2023/08/01 12:21:35;;;;;;;7.53;3.78;;;21.20;61.00;;;;;;4986454;28;114636;-78
2023/08/01 12:24:03;;;;;;;7.78;4.55;;;21.20;60.90;;;;;;4987754;28;114319;-78
2023/08/01 12:26:30;;;;;;;9.18;4.70;;;21.30;60.90;;;;;;4970344;28;114340;-80
2023/08/01 12:28:57;;;;;;;7.53;5.65;;;21.30;60.40;;;;;;4987431;28;115256;-78
2023/08/01 12:31:24;;;;;;;8.30;5.13;;;21.30;59.80;;;;;;4986364;28;114663;-79
2023/08/01 12:33:53;;;;;;;5.00;3.42;;;21.30;59.80;;;;;;4986415;28;114118;-76
2023/08/01 12:36:20;;;;;;;5.47;4.13;;;21.30;60.50;;;;;;4969249;28;114187;-79
2023/08/01 12:38:47;;;;;;;6.10;3.45;;;21.30;60.00;;;;;;4986170;28;115019;-78
2023/08/01 12:41:14;;;;;;;5.40;3.03;;;21.30;60.70;;;;;;4967829;28;116173;-77